Brainard, New York
Current Conditions -  °F | °C
As of 8:54 AM on Saturday 20 Dec 2014 (Local Time) from KPSF Reporting Station
Broken Clouds Broken Clouds  
Wind Chill: 20°   Ceiling: 2600
Heat Index: 20°   Visibility: 10mi
Dew Point: 16°   Wind: 0mph
Humidity: 85%   Direction: NA
Pressure: 30.22"   Gusts: NA
Location:  42.5°N, 73.51°W
Report Text: KPSF 201354Z AUTO 00000KT 10SM BKN026 M07/M09 A3022 RMK AO2 SLP255 T10671089
Loading
Personal Weather Stations






























Interactive Weather Map New forecast layout! Learn more

10-Day Weather Forecast

Advertisements
Track Severe Weather on mobile